Time;durP1;ratioP1;P1;durP2;ratioP2;P2;SDS_P1;SDS_P2;PMS_P1;PMS_P2;Temp;Humidity;BMP_temperature;BMP_pressure;BME280_temperature;BME280_humidity;BME280_pressure;Samples;Min_cycle;Max_cycle;Signal;HPM_P1;HPM_P2
2022/10/13 00:00:57;;;;;;;18.05;10.25;;;11.30;99.90;;;;;;4971284;28;110523;-73
2022/10/13 00:03:24;;;;;;;15.13;10.15;;;11.30;99.90;;;;;;4970776;28;98612;-73
2022/10/13 00:05:51;;;;;;;19.60;11.15;;;11.30;99.90;;;;;;4970319;28;98024;-73
2022/10/13 00:08:20;;;;;;;15.15;10.55;;;11.20;99.90;;;;;;4971666;28;99375;-73
2022/10/13 00:10:49;;;;;;;17.90;10.93;;;11.30;99.90;;;;;;4971266;28;99051;-73
2022/10/13 00:13:22;;;;;;;17.40;10.95;;;11.30;99.90;;;;;;4971596;28;99249;-73
2022/10/13 00:15:49;;;;;;;18.00;10.82;;;11.30;99.90;;;;;;4954013;28;98615;-73
2022/10/13 00:18:16;;;;;;;15.82;11.07;;;11.30;99.90;;;;;;4969902;28;99161;-73
2022/10/13 00:20:48;;;;;;;14.57;10.32;;;11.30;99.90;;;;;;4972420;28;101699;-73
2022/10/13 00:23:16;;;;;;;21.35;11.70;;;11.30;99.90;;;;;;4974079;28;99089;-73
2022/10/13 00:25:48;;;;;;;18.25;11.63;;;11.30;99.90;;;;;;4957544;28;98594;-73
2022/10/13 00:28:17;;;;;;;18.08;10.68;;;11.30;99.90;;;;;;4973210;28;99253;-73
2022/10/13 00:30:45;;;;;;;16.10;10.55;;;11.30;99.90;;;;;;4973135;28;101781;-73
2022/10/13 00:33:13;;;;;;;19.42;11.27;;;11.40;99.90;;;;;;4972981;28;104392;-73
2022/10/13 00:35:43;;;;;;;17.63;10.32;;;11.40;99.90;;;;;;4974728;28;98526;-73
2022/10/13 00:38:10;;;;;;;17.52;10.70;;;11.40;99.90;;;;;;4972619;28;102735;-73
2022/10/13 00:40:47;;;;;;;18.08;11.07;;;11.40;99.90;;;;;;4974138;28;99741;-73
2022/10/13 00:43:21;;;;;;;14.40;10.73;;;11.40;99.90;;;;;;4974801;28;98515;-73
2022/10/13 00:45:49;;;;;;;17.73;11.27;;;11.40;99.90;;;;;;4974685;28;98490;-73
2022/10/13 00:48:29;;;;;;;18.80;11.05;;;11.40;99.90;;;;;;4974112;28;99351;-73
2022/10/13 00:50:57;;;;;;;18.33;10.80;;;11.40;99.90;;;;;;4974083;28;99027;-73
2022/10/13 00:53:34;;;;;;;21.90;12.18;;;11.40;99.90;;;;;;4973215;28;99184;-73
2022/10/13 00:56:02;;;;;;;18.80;11.45;;;11.50;99.90;;;;;;4973482;28;97847;-73
2022/10/13 00:58:30;;;;;;;17.55;11.77;;;11.50;99.90;;;;;;4972761;28;101758;-73
2022/10/13 01:00:58;;;;;;;17.67;11.98;;;11.50;99.90;;;;;;4956026;28;101736;-73
2022/10/13 01:03:26;;;;;;;14.68;11.15;;;11.50;99.90;;;;;;4972676;28;99247;-73
2022/10/13 01:05:56;;;;;;;18.90;12.05;;;11.60;99.90;;;;;;4974141;28;99128;-73
2022/10/13 01:08:28;;;;;;;19.58;12.20;;;11.60;99.90;;;;;;4974041;28;99393;-73
2022/10/13 01:11:06;;;;;;;19.80;11.53;;;11.60;99.90;;;;;;4956336;28;101625;-73
2022/10/13 01:13:39;;;;;;;19.00;11.48;;;11.60;99.90;;;;;;4972749;28;98501;-73
2022/10/13 01:16:35;;;;;;;17.45;12.27;;;11.50;99.90;;;;;;4974302;28;98613;-73
2022/10/13 01:19:37;;;;;;;18.08;11.07;;;11.60;99.90;;;;;;4955870;28;100344;-73
2022/10/13 01:22:27;;;;;;;19.90;12.38;;;11.60;99.90;;;;;;4965760;28;101786;-73
2022/10/13 01:24:57;;;;;;;18.60;12.20;;;11.60;99.90;;;;;;4972588;28;98976;-73
2022/10/13 01:27:35;;;;;;;20.40;11.73;;;11.50;99.90;;;;;;4973945;28;98504;-73
2022/10/13 01:30:11;;;;;;;17.40;11.45;;;11.60;99.90;;;;;;4972751;28;100085;-73
2022/10/13 01:32:55;;;;;;;24.13;12.90;;;11.50;99.90;;;;;;4972639;28;99837;-73
2022/10/13 01:35:34;;;;;;;17.63;12.07;;;11.60;99.90;;;;;;4974207;28;99066;-73
2022/10/13 01:38:23;;;;;;;21.75;11.93;;;11.60;99.90;;;;;;4972179;28;98542;-73
2022/10/13 01:41:19;;;;;;;19.33;11.52;;;11.60;99.90;;;;;;4973246;28;99384;-73
2022/10/13 01:43:56;;;;;;;21.70;11.88;;;11.60;99.90;;;;;;4941014;28;101545;-73
2022/10/13 01:46:33;;;;;;;16.48;11.25;;;11.60;99.90;;;;;;4972272;28;98583;-73
2022/10/13 01:49:05;;;;;;;24.38;12.95;;;11.60;99.90;;;;;;4972781;28;97801;-73
2022/10/13 01:51:34;;;;;;;18.33;11.65;;;11.60;99.90;;;;;;4955810;28;102412;-73
2022/10/13 01:54:00;;;;;;;18.08;11.88;;;11.60;99.90;;;;;;4955522;28;101509;-73
2022/10/13 01:56:27;;;;;;;17.95;11.25;;;11.60;99.90;;;;;;4973124;28;99298;-73
2022/10/13 01:58:58;;;;;;;18.35;12.13;;;11.60;99.90;;;;;;4972078;28;98829;-73
2022/10/13 02:01:58;;;;;;;20.08;11.57;;;11.60;99.90;;;;;;4955722;28;101950;-73
2022/10/13 02:04:49;;;;;;;18.70;11.60;;;11.70;99.90;;;;;;4973213;28;99250;-73
2022/10/13 02:07:42;;;;;;;18.15;12.40;;;11.60;99.90;;;;;;4972217;28;99098;-73
2022/10/13 02:10:30;;;;;;;19.05;12.20;;;11.60;99.90;;;;;;4955708;28;98649;-73
2022/10/13 02:13:02;;;;;;;21.40;12.68;;;11.60;99.90;;;;;;4971217;28;100475;-73
2022/10/13 02:15:46;;;;;;;20.30;12.77;;;11.50;99.90;;;;;;4973359;28;99157;-73
2022/10/13 02:18:14;;;;;;;;;;;11.60;99.90;;;;;;4955983;28;98579;-73
2022/10/13 02:20:41;;;;;;;16.00;11.43;;;11.50;99.90;;;;;;4957580;28;99061;-73
2022/10/13 02:23:14;;;;;;;17.33;11.98;;;11.40;99.90;;;;;;4972303;28;100118;-73
2022/10/13 02:25:42;;;;;;;20.40;12.48;;;11.40;99.90;;;;;;4972671;28;99803;-73
2022/10/13 02:28:09;;;;;;;16.08;12.02;;;11.40;99.90;;;;;;4971769;28;98558;-73
2022/10/13 02:30:42;;;;;;;20.52;12.02;;;11.40;99.90;;;;;;4973183;28;98513;-73
2022/10/13 02:33:10;;;;;;;21.27;11.40;;;11.40;99.90;;;;;;4972073;28;99392;-73
2022/10/13 02:35:38;;;;;;;21.55;12.48;;;11.40;99.90;;;;;;4971122;28;101446;-73
2022/10/13 02:38:05;;;;;;;19.50;12.55;;;11.50;99.90;;;;;;4972616;28;98619;-73
2022/10/13 02:40:32;;;;;;;17.15;12.20;;;11.50;99.90;;;;;;4973011;28;98280;-73
2022/10/13 02:42:59;;;;;;;16.33;11.98;;;11.50;99.90;;;;;;4970049;28;99471;-73
2022/10/13 02:45:26;;;;;;;24.42;13.63;;;11.50;99.90;;;;;;4971214;28;101921;-73
2022/10/13 02:47:54;;;;;;;20.05;11.68;;;11.50;99.90;;;;;;4954858;28;99377;-73
2022/10/13 02:50:21;;;;;;;16.88;12.60;;;11.50;99.90;;;;;;4955145;28;98597;-73
2022/10/13 02:52:49;;;;;;;19.27;12.27;;;11.50;99.90;;;;;;4972196;28;99247;-73
2022/10/13 02:55:16;;;;;;;19.08;12.50;;;11.50;99.90;;;;;;4970935;28;99023;-73
2022/10/13 02:57:45;;;;;;;18.77;12.93;;;11.40;99.90;;;;;;4971269;28;98719;-73
2022/10/13 03:00:13;;;;;;;20.80;13.48;;;11.40;99.90;;;;;;4972082;28;98595;-73
2022/10/13 03:02:40;;;;;;;16.73;12.57;;;11.40;99.90;;;;;;4972295;28;99210;-73
2022/10/13 03:05:08;;;;;;;17.25;12.93;;;11.30;99.90;;;;;;4972027;28;99030;-73
2022/10/13 03:07:35;;;;;;;19.40;13.13;;;11.30;99.90;;;;;;4971261;28;99086;-73
2022/10/13 03:10:03;;;;;;;21.45;12.60;;;11.30;99.90;;;;;;4971126;28;98679;-73
2022/10/13 03:12:30;;;;;;;24.23;13.88;;;11.30;99.90;;;;;;4970163;28;101116;-73
2022/10/13 03:14:57;;;;;;;20.83;12.23;;;11.40;99.90;;;;;;4954315;28;102093;-73
2022/10/13 03:17:24;;;;;;;21.75;12.93;;;11.40;99.90;;;;;;4972461;28;98622;-73
2022/10/13 03:19:51;;;;;;;22.00;13.20;;;11.40;99.90;;;;;;4972323;28;98490;-73
2022/10/13 03:22:18;;;;;;;16.83;13.02;;;11.40;99.90;;;;;;4971687;28;99301;-73
2022/10/13 03:24:45;;;;;;;20.90;13.40;;;11.40;99.90;;;;;;4970688;28;101665;-73
2022/10/13 03:27:13;;;;;;;18.42;12.90;;;11.40;99.90;;;;;;4954232;28;104932;-73
2022/10/13 03:29:40;;;;;;;20.50;13.00;;;11.50;99.90;;;;;;4971354;28;97871;-73
2022/10/13 03:32:07;;;;;;;19.45;13.25;;;11.50;99.90;;;;;;4971296;28;99368;-73
2022/10/13 03:34:33;;;;;;;21.75;14.30;;;11.50;99.90;;;;;;4972201;28;99000;-73
2022/10/13 03:37:00;;;;;;;22.55;14.00;;;11.50;99.90;;;;;;4970469;28;99313;-73
2022/10/13 03:39:32;;;;;;;21.02;13.93;;;11.60;99.90;;;;;;4972441;28;98519;-73
2022/10/13 03:41:59;;;;;;;21.25;13.38;;;11.60;99.90;;;;;;4954038;28;100279;-73
2022/10/13 03:44:26;;;;;;;20.55;14.45;;;11.60;99.90;;;;;;4954197;28;100602;-73
2022/10/13 03:46:53;;;;;;;21.67;13.70;;;11.60;99.90;;;;;;4971978;28;98513;-73
2022/10/13 03:49:20;;;;;;;21.05;13.48;;;11.70;99.90;;;;;;4970741;28;98691;-73
2022/10/13 03:51:47;;;;;;;19.45;13.25;;;11.70;99.90;;;;;;4971755;28;99460;-73
2022/10/13 03:54:14;;;;;;;20.15;13.18;;;11.80;99.90;;;;;;4971151;28;99064;-73
2022/10/13 03:56:45;;;;;;;18.20;13.27;;;11.80;99.90;;;;;;4975848;28;99114;-73
2022/10/13 03:59:15;;;;;;;20.98;14.45;;;11.80;99.90;;;;;;4975292;28;98529;-73
2022/10/13 04:01:42;;;;;;;20.92;14.32;;;11.80;99.90;;;;;;4973274;28;102146;-73
2022/10/13 04:04:10;;;;;;;24.45;14.85;;;11.80;99.90;;;;;;4973330;28;102343;-73
2022/10/13 04:06:41;;;;;;;21.38;14.07;;;11.90;99.90;;;;;;4975480;28;98476;-73
2022/10/13 04:09:08;;;;;;;23.67;14.65;;;11.90;99.90;;;;;;4973802;28;98638;-73
2022/10/13 04:11:35;;;;;;;23.02;15.13;;;11.90;99.90;;;;;;4975008;28;99577;-73
2022/10/13 04:14:02;;;;;;;20.10;14.27;;;11.90;99.90;;;;;;4974679;28;99122;-73
2022/10/13 04:16:30;;;;;;;20.73;14.25;;;11.90;99.90;;;;;;4974123;28;98581;-73
2022/10/13 04:19:03;;;;;;;28.65;15.38;;;11.90;99.90;;;;;;4974039;28;97819;-73
2022/10/13 04:21:32;;;;;;;21.75;14.80;;;12.00;99.90;;;;;;4973716;28;99328;-73
2022/10/13 04:24:00;;;;;;;22.05;14.38;;;11.90;99.90;;;;;;4957161;28;102159;-73
2022/10/13 04:26:30;;;;;;;21.83;14.82;;;11.90;99.90;;;;;;4974475;28;99160;-73
2022/10/13 04:29:01;;;;;;;22.38;15.10;;;12.00;99.90;;;;;;4974053;28;98539;-73
2022/10/13 04:31:29;;;;;;;21.10;14.63;;;11.90;99.90;;;;;;4974158;28;99442;-73
2022/10/13 04:33:57;;;;;;;22.75;15.90;;;12.00;99.90;;;;;;4972680;28;106200;-73
2022/10/13 04:36:24;;;;;;;24.23;16.08;;;11.90;99.90;;;;;;4974683;28;98572;-73
2022/10/13 04:38:53;;;;;;;26.67;14.48;;;12.00;99.90;;;;;;4973408;28;98727;-73
2022/10/13 04:41:22;;;;;;;24.10;16.08;;;12.00;99.90;;;;;;4973771;28;99311;-73
2022/10/13 04:43:50;;;;;;;24.00;14.15;;;12.00;99.90;;;;;;4957089;28;101544;-73
2022/10/13 04:46:20;;;;;;;22.15;15.18;;;12.00;99.90;;;;;;4974598;28;98536;-73
2022/10/13 04:48:47;;;;;;;21.98;15.40;;;12.00;99.90;;;;;;4973642;28;98596;-73
2022/10/13 04:51:17;;;;;;;26.45;16.38;;;12.00;99.90;;;;;;4972268;28;102511;-73
2022/10/13 04:53:45;;;;;;;28.42;16.73;;;12.00;99.90;;;;;;4972588;28;102610;-73
2022/10/13 04:56:14;;;;;;;21.70;15.95;;;12.00;99.90;;;;;;4940692;28;98627;-73
2022/10/13 04:58:43;;;;;;;26.10;16.02;;;12.00;99.90;;;;;;4973110;28;98737;-73
2022/10/13 05:01:14;;;;;;;28.75;17.08;;;12.10;99.90;;;;;;4974089;28;100043;-73
2022/10/13 05:03:49;;;;;;;24.48;16.13;;;12.00;99.90;;;;;;4974187;28;99208;-73
2022/10/13 05:06:18;;;;;;;23.35;17.27;;;12.00;99.90;;;;;;4973245;28;98517;-73
2022/10/13 05:08:48;;;;;;;27.52;17.77;;;12.10;99.90;;;;;;4973766;28;98406;-73
2022/10/13 05:11:16;;;;;;;25.92;17.17;;;12.00;99.90;;;;;;4972144;28;101793;-73
2022/10/13 05:13:45;;;;;;;29.58;18.25;;;12.10;99.90;;;;;;4972520;28;100223;-73
2022/10/13 05:16:15;;;;;;;27.65;16.50;;;12.10;99.90;;;;;;4972464;28;99393;-73
2022/10/13 05:18:42;;;;;;;24.38;17.10;;;12.10;99.90;;;;;;4972562;28;98550;-73
2022/10/13 05:21:12;;;;;;;23.13;16.85;;;12.10;99.90;;;;;;4972626;28;99222;-73
2022/10/13 05:23:40;;;;;;;26.90;18.08;;;12.20;99.90;;;;;;4956190;28;102212;-73
2022/10/13 05:26:10;;;;;;;28.73;18.38;;;12.20;99.90;;;;;;4972796;28;98570;-73
2022/10/13 05:28:37;;;;;;;28.73;19.63;;;12.20;99.90;;;;;;4956229;28;98600;-73
2022/10/13 05:31:25;;;;;;;31.17;18.38;;;12.10;99.90;;;;;;4972145;28;107698;-73
2022/10/13 05:33:52;;;;;;;29.58;19.17;;;12.20;99.90;;;;;;4972458;28;99002;-73
2022/10/13 05:36:26;;;;;;;28.50;18.92;;;12.10;99.90;;;;;;4973650;28;98952;-73
2022/10/13 05:38:55;;;;;;;28.00;17.50;;;12.20;99.90;;;;;;4973956;28;98429;-73
2022/10/13 05:41:24;;;;;;;28.23;18.15;;;12.20;99.90;;;;;;4971680;28;100140;-73
2022/10/13 05:43:56;;;;;;;28.05;19.20;;;12.20;99.90;;;;;;4973178;28;99980;-73
2022/10/13 05:46:23;;;;;;;28.75;19.80;;;12.20;99.90;;;;;;4971809;28;98699;-73
2022/10/13 05:48:50;;;;;;;30.38;18.88;;;12.20;99.90;;;;;;4972323;28;99027;-73
2022/10/13 05:51:22;;;;;;;24.50;17.27;;;12.10;99.90;;;;;;4973283;28;99360;-73
2022/10/13 05:53:58;;;;;;;28.27;17.83;;;12.20;99.90;;;;;;4973212;28;99317;-73
2022/10/13 05:56:29;;;;;;;30.85;19.10;;;12.10;99.90;;;;;;4973440;28;98572;-73
2022/10/13 05:59:01;;;;;;;26.83;17.52;;;12.10;99.90;;;;;;4972644;28;97789;-73
2022/10/13 06:01:31;;;;;;;29.52;19.10;;;12.10;99.90;;;;;;4973130;28;99287;-73
2022/10/13 06:04:03;;;;;;;31.33;19.92;;;12.10;99.90;;;;;;4971720;28;101924;-73
2022/10/13 06:06:30;;;;;;;29.02;18.50;;;12.20;99.90;;;;;;4973231;28;99645;-73
2022/10/13 06:08:59;;;;;;;28.30;18.27;;;12.20;99.90;;;;;;4956145;28;98502;-73
2022/10/13 06:11:26;;;;;;;24.02;17.35;;;12.20;99.90;;;;;;4955322;28;100471;-73
2022/10/13 06:13:53;;;;;;;26.25;18.08;;;12.20;99.90;;;;;;4971638;28;101485;-73
2022/10/13 06:16:20;;;;;;;21.65;17.05;;;12.20;99.90;;;;;;4973235;28;98549;-73
2022/10/13 06:18:47;;;;;;;29.67;19.45;;;12.20;99.90;;;;;;4972855;28;99068;-73
2022/10/13 06:21:13;;;;;;;25.00;17.15;;;12.20;99.90;;;;;;4972570;28;99320;-73
2022/10/13 06:23:40;;;;;;;24.52;17.95;;;12.20;99.90;;;;;;4971780;28;98892;-73
2022/10/13 06:26:08;;;;;;;27.55;18.30;;;12.30;99.90;;;;;;4973164;28;98616;-73
2022/10/13 06:28:36;;;;;;;28.70;18.52;;;12.30;99.90;;;;;;4955516;28;98693;-73
2022/10/13 06:31:05;;;;;;;24.55;17.02;;;12.30;99.90;;;;;;4970968;28;102657;-73
2022/10/13 06:33:32;;;;;;;24.63;17.88;;;12.30;99.90;;;;;;4970740;28;102348;-73
2022/10/13 06:36:01;;;;;;;26.67;17.55;;;12.40;99.90;;;;;;4971543;28;98811;-73
2022/10/13 06:38:29;;;;;;;28.73;16.75;;;12.40;99.90;;;;;;4972631;28;98565;-73
2022/10/13 06:41:01;;;;;;;27.08;18.77;;;12.40;99.90;;;;;;4972647;28;99460;-73
2022/10/13 06:43:31;;;;;;;25.90;17.73;;;12.50;99.90;;;;;;4939688;28;101760;-73
2022/10/13 06:46:08;;;;;;;29.13;19.38;;;12.50;99.90;;;;;;4971541;28;98662;-73
2022/10/13 06:48:35;;;;;;;25.83;16.13;;;12.50;99.90;;;;;;4972789;28;98146;-73
2022/10/13 06:51:04;;;;;;;24.77;17.65;;;12.60;99.90;;;;;;4954238;28;113917;-73
2022/10/13 06:53:32;;;;;;;26.17;17.08;;;12.60;99.90;;;;;;4970864;28;99102;-73
2022/10/13 06:56:00;;;;;;;28.88;19.10;;;12.60;99.90;;;;;;4971177;28;99292;-73
2022/10/13 06:58:27;;;;;;;27.02;18.08;;;12.60;99.90;;;;;;4971311;28;99006;-73
2022/10/13 07:00:54;;;;;;;32.05;21.27;;;12.60;99.90;;;;;;4972006;28;99326;-73
2022/10/13 07:03:22;;;;;;;28.38;17.95;;;12.60;99.90;;;;;;4972152;28;99279;-73
2022/10/13 07:05:49;;;;;;;25.65;17.38;;;12.70;99.90;;;;;;4954850;28;98614;-73
2022/10/13 07:08:16;;;;;;;26.98;17.92;;;12.70;99.90;;;;;;4971063;28;98640;-73
2022/10/13 07:10:43;;;;;;;27.05;18.08;;;12.80;99.90;;;;;;4970395;28;102131;-73
2022/10/13 07:13:10;;;;;;;30.20;18.42;;;12.80;99.90;;;;;;4970495;28;118191;-73
2022/10/13 07:15:39;;;;;;;24.98;17.55;;;12.80;99.90;;;;;;4970566;28;98602;-73
2022/10/13 07:18:06;;;;;;;27.17;17.48;;;12.90;99.90;;;;;;4971024;28;98483;-73
2022/10/13 07:20:34;;;;;;;23.92;16.92;;;12.90;99.90;;;;;;4971736;28;100023;-73
2022/10/13 07:23:01;;;;;;;24.60;18.55;;;12.90;99.90;;;;;;4954376;28;102462;-73
2022/10/13 07:25:28;;;;;;;21.60;16.42;;;12.90;99.90;;;;;;4970924;28;98606;-73
2022/10/13 07:27:56;;;;;;;26.50;17.02;;;12.90;99.90;;;;;;4970732;28;98605;-73
2022/10/13 07:30:23;;;;;;;26.73;17.50;;;12.90;99.90;;;;;;4971191;28;99539;-73
2022/10/13 07:32:50;;;;;;;26.85;16.83;;;12.90;99.90;;;;;;4971476;28;99277;-73
2022/10/13 07:35:17;;;;;;;25.77;18.70;;;13.00;99.90;;;;;;4972342;28;98561;-73
2022/10/13 07:37:45;;;;;;;24.05;17.42;;;13.00;99.90;;;;;;4972274;28;97795;-73
2022/10/13 07:40:12;;;;;;;26.90;17.30;;;13.00;99.90;;;;;;4971889;28;99390;-73
2022/10/13 07:42:39;;;;;;;26.15;17.95;;;13.00;99.90;;;;;;4970238;28;99209;-73
2022/10/13 07:45:07;;;;;;;23.38;17.08;;;13.00;99.90;;;;;;4970618;28;99366;-73
2022/10/13 07:47:34;;;;;;;22.42;16.67;;;13.10;99.90;;;;;;4954466;28;98656;-73
2022/10/13 07:50:01;;;;;;;26.77;17.90;;;13.10;99.90;;;;;;4970402;28;99207;-73
2022/10/13 07:52:28;;;;;;;23.60;17.33;;;13.10;99.90;;;;;;4954256;28;99099;-73
2022/10/13 07:54:55;;;;;;;26.67;17.52;;;13.20;99.90;;;;;;4970510;28;98603;-73
2022/10/13 07:57:26;;;;;;;23.40;16.75;;;13.20;99.90;;;;;;4971770;28;98589;-73
2022/10/13 07:59:53;;;;;;;25.05;17.65;;;13.20;99.90;;;;;;4971498;28;99345;-73
2022/10/13 08:02:20;;;;;;;28.17;18.58;;;13.30;99.90;;;;;;4971936;28;99125;-73
2022/10/13 08:04:47;;;;;;;28.45;17.52;;;13.30;99.90;;;;;;4953734;28;105853;-73
2022/10/13 08:07:15;;;;;;;30.25;17.73;;;13.40;99.90;;;;;;4971865;28;98525;-73
2022/10/13 08:09:42;;;;;;;24.17;18.33;;;13.50;99.90;;;;;;4985614;28;100056;-73
2022/10/13 08:12:10;;;;;;;23.20;17.13;;;13.60;99.90;;;;;;4970128;28;99776;-73
2022/10/13 08:14:37;;;;;;;31.00;19.15;;;13.70;99.90;;;;;;4970205;28;98600;-73
2022/10/13 08:17:04;;;;;;;29.75;19.10;;;13.80;99.90;;;;;;4970614;28;98531;-73
2022/10/13 08:19:31;;;;;;;24.75;19.10;;;13.80;99.90;;;;;;4971355;28;99249;-73
2022/10/13 08:21:57;;;;;;;23.45;17.17;;;13.80;99.90;;;;;;4937365;28;101819;-73
2022/10/13 08:24:26;;;;;;;24.33;17.20;;;13.90;99.90;;;;;;4970328;28;98563;-73
2022/10/13 08:26:54;;;;;;;27.42;18.55;;;14.00;99.90;;;;;;4937882;28;97891;-73
2022/10/13 08:29:21;;;;;;;23.10;17.13;;;14.10;99.90;;;;;;4970917;28;113450;-73
2022/10/13 08:31:51;;;;;;;25.33;17.48;;;14.20;99.90;;;;;;4969240;28;103205;-73
2022/10/13 08:34:19;;;;;;;27.30;18.13;;;14.30;99.90;;;;;;4971304;28;99309;-73
2022/10/13 08:36:46;;;;;;;26.55;16.70;;;14.40;99.90;;;;;;4970004;28;98576;-73
2022/10/13 08:39:13;;;;;;;27.92;18.83;;;14.60;99.90;;;;;;4969704;28;100355;-73
2022/10/13 08:41:42;;;;;;;41.28;19.55;;;14.70;99.90;;;;;;4972270;28;99187;-73
2022/10/13 08:44:21;;;;;;;25.70;18.38;;;14.80;99.90;;;;;;4973382;28;98504;-73
2022/10/13 08:47:15;;;;;;;24.60;17.63;;;15.00;99.90;;;;;;4973100;28;98625;-73
2022/10/13 08:49:42;;;;;;;20.98;17.60;;;15.10;99.90;;;;;;4974494;28;99123;-73
2022/10/13 08:52:21;;;;;;;23.23;18.10;;;15.20;99.90;;;;;;4989804;28;101655;-73
2022/10/13 08:54:49;;;;;;;24.60;17.25;;;15.30;99.90;;;;;;4973179;28;98601;-73
2022/10/13 08:57:17;;;;;;;23.85;16.63;;;15.30;99.90;;;;;;4974678;28;98549;-73
2022/10/13 08:59:44;;;;;;;25.35;18.55;;;15.40;99.90;;;;;;4973789;28;99983;-73
2022/10/13 09:02:21;;;;;;;26.15;18.35;;;15.40;99.90;;;;;;4972816;28;99843;-73
2022/10/13 09:04:51;;;;;;;27.70;19.42;;;15.50;99.90;;;;;;4972848;28;98683;-73
2022/10/13 09:07:25;;;;;;;25.27;17.85;;;15.50;99.90;;;;;;4973192;28;98526;-73
2022/10/13 09:09:53;;;;;;;24.55;18.30;;;15.70;99.90;;;;;;4974085;28;99453;-73
2022/10/13 09:12:23;;;;;;;25.95;18.48;;;15.60;99.90;;;;;;4973595;28;99127;-73
2022/10/13 09:15:05;;;;;;;44.58;20.15;;;15.70;99.90;;;;;;4973832;28;98425;-73
2022/10/13 09:17:33;;;;;;;25.42;17.35;;;15.80;99.90;;;;;;4973092;28;97891;-73
2022/10/13 09:20:18;;;;;;;25.75;17.88;;;15.70;99.90;;;;;;4972463;28;99304;-73
2022/10/13 09:23:05;;;;;;;42.03;18.67;;;15.80;99.90;;;;;;4973964;28;99148;-73
2022/10/13 09:25:43;;;;;;;23.50;16.90;;;15.70;99.90;;;;;;4973966;28;99708;-73
2022/10/13 09:28:23;;;;;;;20.92;15.95;;;15.70;99.90;;;;;;4972708;28;98572;-73
2022/10/13 09:31:05;;;;;;;21.25;17.15;;;15.60;99.90;;;;;;4973492;28;99327;-73
2022/10/13 09:33:36;;;;;;;24.02;17.73;;;15.60;99.90;;;;;;4971839;28;101951;-73
2022/10/13 09:36:05;;;;;;;23.23;17.88;;;15.60;99.90;;;;;;4972254;28;98547;-73
2022/10/13 09:38:33;;;;;;;23.63;17.30;;;15.50;99.90;;;;;;4973645;28;98564;-73
2022/10/13 09:41:04;;;;;;;23.80;17.67;;;15.60;99.90;;;;;;4972073;28;99348;-73
2022/10/13 09:43:39;;;;;;;26.50;18.70;;;15.70;99.90;;;;;;4973987;28;99090;-73
2022/10/13 09:46:23;;;;;;;26.77;20.17;;;15.90;99.90;;;;;;4973668;28;98484;-73
2022/10/13 09:48:51;;;;;;;;;;;16.10;99.90;;;;;;4972650;28;98629;-73
2022/10/13 09:51:38;;;;;;;24.40;19.00;;;15.90;99.90;;;;;;4974640;28;100159;-73
2022/10/13 09:54:33;;;;;;;24.10;19.90;;;15.80;99.90;;;;;;4972949;28;99847;-73
2022/10/13 09:57:19;;;;;;;28.20;20.35;;;15.90;99.90;;;;;;4971840;28;98562;-73
2022/10/13 10:00:00;;;;;;;24.08;18.77;;;15.80;99.90;;;;;;4973770;28;98550;-73
2022/10/13 10:03:04;;;;;;;25.02;20.00;;;15.80;99.90;;;;;;4972021;28;99324;-73
2022/10/13 10:05:54;;;;;;;24.65;19.38;;;15.90;99.90;;;;;;4972871;28;99137;-73
2022/10/13 10:08:52;;;;;;;26.15;18.58;;;16.00;99.90;;;;;;4973483;28;98475;-73
2022/10/13 10:11:40;;;;;;;29.63;19.52;;;16.10;99.90;;;;;;4958034;28;97883;-73
2022/10/13 10:14:22;;;;;;;25.00;18.77;;;16.40;99.90;;;;;;4971317;28;102085;-73
2022/10/13 10:16:56;;;;;;;25.92;19.30;;;16.70;99.90;;;;;;4971509;28;101541;-73
2022/10/13 10:20:00;;;;;;;25.85;19.95;;;16.90;99.90;;;;;;4971788;28;99189;-73
2022/10/13 10:22:42;;;;;;;26.02;18.27;;;17.00;99.90;;;;;;4953641;28;98632;-73
2022/10/13 10:25:32;;;;;;;24.23;18.67;;;17.10;99.90;;;;;;4972785;28;99310;-73
2022/10/13 10:28:13;;;;;;;24.83;17.95;;;17.10;99.90;;;;;;4972673;28;99130;-73
2022/10/13 10:30:49;;;;;;;21.45;16.80;;;17.10;99.90;;;;;;4971719;28;98515;-73
2022/10/13 10:33:27;;;;;;;25.85;18.02;;;17.10;99.90;;;;;;4972501;28;98569;-73
2022/10/13 10:36:03;;;;;;;28.65;18.88;;;17.00;99.90;;;;;;4972588;28;99299;-73
2022/10/13 10:38:33;;;;;;;43.30;27.38;;;17.00;99.90;;;;;;4972996;28;99117;-74
2022/10/13 10:41:30;;;;;;;68.82;44.75;;;16.90;99.90;;;;;;4971245;28;99050;-74
2022/10/13 10:44:36;;;;;;;21.35;16.08;;;16.90;99.90;;;;;;4973023;28;98426;-73
2022/10/13 10:47:14;;;;;;;23.23;18.45;;;16.80;99.90;;;;;;4950155;28;100001;-73
2022/10/13 10:49:44;;;;;;;26.20;20.42;;;16.90;99.90;;;;;;4934278;28;102489;-73
2022/10/13 10:52:23;;;;;;;23.25;18.70;;;16.90;99.90;;;;;;4962059;28;98649;-73
2022/10/13 10:55:12;;;;;;;;;;;17.10;99.90;;;;;;4972222;28;98712;-73
2022/10/13 10:58:08;;;;;;;25.35;18.08;;;16.80;99.90;;;;;;4974215;28;99279;-73
2022/10/13 11:00:49;;;;;;;23.77;18.13;;;16.70;99.90;;;;;;4972566;28;99170;-73
2022/10/13 11:03:33;;;;;;;27.50;21.83;;;16.70;99.90;;;;;;4970920;28;98620;-73
2022/10/13 11:06:05;;;;;;;24.63;18.38;;;16.60;99.90;;;;;;4972914;28;98061;-73
2022/10/13 11:08:41;;;;;;;25.27;19.30;;;16.60;99.90;;;;;;4972378;28;99156;-73
2022/10/13 11:11:21;;;;;;;24.25;19.05;;;16.50;99.90;;;;;;4972220;28;98962;-73
2022/10/13 11:14:04;;;;;;;25.27;18.67;;;16.50;99.90;;;;;;4970642;28;99351;-73
2022/10/13 11:16:58;;;;;;;27.45;20.15;;;16.40;99.90;;;;;;4972607;28;98524;-73
2022/10/13 11:19:33;;;;;;;29.85;21.52;;;16.30;99.90;;;;;;4970410;28;101906;-73
2022/10/13 11:22:00;;;;;;;28.40;20.40;;;16.30;99.90;;;;;;4972195;28;99136;-73
2022/10/13 11:24:41;;;;;;;25.73;20.00;;;16.20;99.90;;;;;;4970783;28;99080;-73
2022/10/13 11:27:16;;;;;;;25.30;20.15;;;16.20;99.90;;;;;;4972151;28;98595;-73
2022/10/13 11:29:43;;;;;;;26.67;21.67;;;16.20;99.90;;;;;;4972030;28;99314;-73
2022/10/13 11:35:04;;;;;;;28.35;21.00;;;16.20;99.90;;;;;;4972168;28;98990;-73
2022/10/13 11:37:37;;;;;;;27.55;20.90;;;16.20;99.90;;;;;;4971839;28;98529;-73
2022/10/13 11:40:26;;;;;;;28.98;22.05;;;16.30;99.90;;;;;;4971542;28;100072;-73
2022/10/13 11:43:13;;;;;;;29.25;21.10;;;16.30;99.90;;;;;;4970422;28;102398;-73
2022/10/13 11:45:50;;;;;;;35.05;22.30;;;16.40;99.90;;;;;;4972404;28;98514;-74
2022/10/13 11:48:25;;;;;;;28.73;21.48;;;16.50;99.90;;;;;;4972038;28;98434;-73
2022/10/13 11:50:58;;;;;;;27.05;21.58;;;16.60;99.90;;;;;;4970550;28;99444;-73
2022/10/13 11:53:46;;;;;;;27.10;20.83;;;16.70;99.90;;;;;;4971482;28;99387;-73
2022/10/13 11:56:34;;;;;;;24.38;19.65;;;16.70;99.90;;;;;;4963775;28;98857;-73
2022/10/13 11:59:03;;;;;;;23.23;19.67;;;16.80;99.90;;;;;;4971749;28;97854;-73
2022/10/13 12:01:34;;;;;;;26.58;21.08;;;16.80;99.90;;;;;;4971291;28;99280;-73
2022/10/13 12:04:12;;;;;;;28.50;22.02;;;16.80;99.90;;;;;;4970099;28;100651;-73
2022/10/13 12:06:41;;;;;;;26.52;21.52;;;16.80;99.90;;;;;;4971478;28;99242;-73
2022/10/13 12:09:19;;;;;;;25.33;20.73;;;16.80;99.90;;;;;;4970506;28;98642;-73
2022/10/13 12:11:59;;;;;;;27.35;21.85;;;16.90;99.90;;;;;;4971136;28;99397;-73
2022/10/13 12:14:38;;;;;;;26.92;21.17;;;16.80;99.90;;;;;;4971316;28;99206;-73
2022/10/13 12:17:37;;;;;;;26.58;22.63;;;16.80;99.90;;;;;;4975285;28;98971;-73
2022/10/13 12:20:23;;;;;;;28.50;21.95;;;16.80;99.90;;;;;;4973921;28;98604;-73
2022/10/13 12:22:51;;;;;;;30.80;22.65;;;16.80;99.90;;;;;;4974847;28;99340;-73
2022/10/13 12:25:21;;;;;;;26.23;21.80;;;16.70;99.90;;;;;;4973496;28;99397;-73
2022/10/13 12:27:56;;;;;;;30.50;23.05;;;16.70;99.90;;;;;;4975078;28;99170;-74
2022/10/13 12:30:29;;;;;;;29.65;22.35;;;16.70;99.90;;;;;;4975045;28;98566;-73
2022/10/13 12:32:59;;;;;;;28.98;22.08;;;16.70;99.90;;;;;;4972848;28;100211;-73
2022/10/13 12:35:32;;;;;;;28.10;22.38;;;16.70;99.90;;;;;;4972813;28;99742;-73
2022/10/13 12:38:06;;;;;;;31.83;23.70;;;16.70;99.90;;;;;;4974975;28;98536;-73
2022/10/13 12:40:34;;;;;;;27.80;22.70;;;16.70;99.90;;;;;;4974854;28;98536;-73
2022/10/13 12:43:03;;;;;;;27.63;24.13;;;16.70;99.90;;;;;;4956391;28;100444;-73
2022/10/13 12:45:32;;;;;;;32.75;23.13;;;16.70;99.90;;;;;;4974007;28;99054;-73
2022/10/13 12:47:59;;;;;;;34.33;24.90;;;16.70;99.90;;;;;;4974847;28;99099;-73
2022/10/13 12:50:26;;;;;;;32.42;24.75;;;16.70;99.90;;;;;;4973009;28;102148;-73
2022/10/13 12:53:02;;;;;;;31.38;24.42;;;16.60;99.90;;;;;;4972978;28;102026;-73
2022/10/13 12:55:29;;;;;;;27.90;24.05;;;16.60;99.90;;;;;;4973979;28;99268;-73